sensor_id;sensor_type;location;lat;lon;timestamp;pressure;altitude;pressure_sealevel;temperature;humidity
31331;BME280;34067;39.548;-76.088;2022-10-03T00:01:33;101999.80;;;8.96;100.00
31331;BME280;34067;39.548;-76.088;2022-10-03T00:04:13;101995.00;;;8.17;100.00
31331;BME280;34067;39.548;-76.088;2022-10-03T00:06:49;102004.43;;;8.32;100.00
31331;BME280;34067;39.548;-76.088;2022-10-03T00:09:34;101992.49;;;8.33;100.00
31331;BME280;34067;39.548;-76.088;2022-10-03T00:12:16;101989.48;;;8.56;100.00
31331;BME280;34067;39.548;-76.088;2022-10-03T00:14:52;101983.37;;;8.88;100.00
31331;BME280;34067;39.548;-76.088;2022-10-03T00:17:30;101983.34;;;8.18;100.00
31331;BME280;34067;39.548;-76.088;2022-10-03T00:20:27;101984.58;;;8.53;100.00
31331;BME280;34067;39.548;-76.088;2022-10-03T00:23:03;101986.07;;;8.66;100.00
31331;BME280;34067;39.548;-76.088;2022-10-03T00:25:41;101986.50;;;7.73;100.00
31331;BME280;34067;39.548;-76.088;2022-10-03T00:28:22;101986.88;;;7.41;100.00
31331;BME280;34067;39.548;-76.088;2022-10-03T00:31:08;101978.61;;;7.74;100.00
31331;BME280;34067;39.548;-76.088;2022-10-03T00:33:51;101977.00;;;8.02;100.00
31331;BME280;34067;39.548;-76.088;2022-10-03T00:36:32;101982.24;;;8.08;100.00
31331;BME280;34067;39.548;-76.088;2022-10-03T00:39:19;101978.34;;;7.56;100.00
31331;BME280;34067;39.548;-76.088;2022-10-03T00:42:38;101980.02;;;8.14;100.00
31331;BME280;34067;39.548;-76.088;2022-10-03T00:45:44;101980.01;;;8.01;100.00
31331;BME280;34067;39.548;-76.088;2022-10-03T00:50:59;101983.03;;;8.93;100.00
31331;BME280;34067;39.548;-76.088;2022-10-03T00:53:45;101979.34;;;8.54;100.00
31331;BME280;34067;39.548;-76.088;2022-10-03T00:56:31;101981.93;;;8.06;100.00
31331;BME280;34067;39.548;-76.088;2022-10-03T00:59:20;101982.71;;;8.10;100.00
31331;BME280;34067;39.548;-76.088;2022-10-03T01:01:53;101983.87;;;8.75;100.00
31331;BME280;34067;39.548;-76.088;2022-10-03T01:04:35;101991.73;;;8.53;100.00
31331;BME280;34067;39.548;-76.088;2022-10-03T01:07:17;102000.53;;;8.35;100.00
31331;BME280;34067;39.548;-76.088;2022-10-03T01:10:00;102001.34;;;8.55;100.00
31331;BME280;34067;39.548;-76.088;2022-10-03T01:12:47;102005.24;;;8.80;100.00
31331;BME280;34067;39.548;-76.088;2022-10-03T01:15:26;102005.96;;;8.34;100.00
31331;BME280;34067;39.548;-76.088;2022-10-03T01:18:08;102009.02;;;8.03;100.00
31331;BME280;34067;39.548;-76.088;2022-10-03T01:20:49;102009.05;;;7.72;100.00
31331;BME280;34067;39.548;-76.088;2022-10-03T01:24:40;102009.04;;;8.42;100.00
31331;BME280;34067;39.548;-76.088;2022-10-03T01:27:22;102015.18;;;9.11;100.00
31331;BME280;34067;39.548;-76.088;2022-10-03T01:29:54;102022.75;;;8.86;100.00
31331;BME280;34067;39.548;-76.088;2022-10-03T01:32:30;102019.58;;;8.81;100.00
31331;BME280;34067;39.548;-76.088;2022-10-03T01:35:10;102021.40;;;8.17;100.00
31331;BME280;34067;39.548;-76.088;2022-10-03T01:37:52;102020.06;;;8.24;100.00
31331;BME280;34067;39.548;-76.088;2022-10-03T01:40:28;102029.07;;;8.53;100.00
31331;BME280;34067;39.548;-76.088;2022-10-03T01:43:09;102033.09;;;8.43;100.00
31331;BME280;34067;39.548;-76.088;2022-10-03T01:45:53;102034.79;;;9.14;100.00
31331;BME280;34067;39.548;-76.088;2022-10-03T01:48:33;102033.42;;;8.18;100.00
31331;BME280;34067;39.548;-76.088;2022-10-03T01:51:08;102044.11;;;8.80;100.00
31331;BME280;34067;39.548;-76.088;2022-10-03T01:53:49;102040.66;;;8.52;100.00
31331;BME280;34067;39.548;-76.088;2022-10-03T01:56:31;102039.96;;;9.11;100.00
31331;BME280;34067;39.548;-76.088;2022-10-03T01:59:06;102041.61;;;8.68;100.00
31331;BME280;34067;39.548;-76.088;2022-10-03T02:01:45;102045.05;;;8.84;100.00
31331;BME280;34067;39.548;-76.088;2022-10-03T02:04:21;102048.12;;;9.07;100.00
31331;BME280;34067;39.548;-76.088;2022-10-03T02:07:02;102049.83;;;8.12;100.00
31331;BME280;34067;39.548;-76.088;2022-10-03T02:09:38;102052.00;;;9.50;100.00
31331;BME280;34067;39.548;-76.088;2022-10-03T02:12:11;102049.90;;;7.48;100.00
31331;BME280;34067;39.548;-76.088;2022-10-03T02:14:48;102053.19;;;8.58;100.00
31331;BME280;34067;39.548;-76.088;2022-10-03T02:17:26;102052.21;;;8.78;100.00
31331;BME280;34067;39.548;-76.088;2022-10-03T02:20:03;102043.37;;;7.51;100.00
31331;BME280;34067;39.548;-76.088;2022-10-03T02:22:39;102045.41;;;8.51;100.00
31331;BME280;34067;39.548;-76.088;2022-10-03T02:25:22;102055.38;;;8.23;100.00
31331;BME280;34067;39.548;-76.088;2022-10-03T02:28:09;102049.69;;;8.22;100.00
31331;BME280;34067;39.548;-76.088;2022-10-03T02:30:52;102051.39;;;8.32;100.00
31331;BME280;34067;39.548;-76.088;2022-10-03T02:33:37;102057.49;;;7.32;100.00
31331;BME280;34067;39.548;-76.088;2022-10-03T02:39:14;102059.90;;;7.91;100.00
31331;BME280;34067;39.548;-76.088;2022-10-03T02:44:17;102056.17;;;8.18;100.00
31331;BME280;34067;39.548;-76.088;2022-10-03T02:47:11;102059.34;;;8.08;100.00
31331;BME280;34067;39.548;-76.088;2022-10-03T02:50:16;102056.04;;;8.41;100.00
31331;BME280;34067;39.548;-76.088;2022-10-03T02:53:42;102063.76;;;8.13;100.00
31331;BME280;34067;39.548;-76.088;2022-10-03T02:59:03;102057.71;;;8.89;100.00
31331;BME280;34067;39.548;-76.088;2022-10-03T03:01:51;102061.22;;;8.27;100.00
31331;BME280;34067;39.548;-76.088;2022-10-03T03:05:17;102061.40;;;7.92;100.00
31331;BME280;34067;39.548;-76.088;2022-10-03T03:08:21;102064.90;;;7.32;100.00
31331;BME280;34067;39.548;-76.088;2022-10-03T03:16:06;102070.32;;;9.69;100.00
31331;BME280;34067;39.548;-76.088;2022-10-03T03:18:45;102076.04;;;9.08;100.00
31331;BME280;34067;39.548;-76.088;2022-10-03T03:21:23;102077.52;;;8.67;100.00
31331;BME280;34067;39.548;-76.088;2022-10-03T03:24:40;102082.71;;;9.29;100.00
31331;BME280;34067;39.548;-76.088;2022-10-03T03:27:22;102073.65;;;7.70;100.00
31331;BME280;34067;39.548;-76.088;2022-10-03T03:30:01;102074.31;;;9.65;100.00
31331;BME280;34067;39.548;-76.088;2022-10-03T03:32:43;102084.32;;;8.89;100.00
31331;BME280;34067;39.548;-76.088;2022-10-03T03:35:26;102086.73;;;8.79;100.00
31331;BME280;34067;39.548;-76.088;2022-10-03T03:38:08;102085.77;;;8.50;100.00
31331;BME280;34067;39.548;-76.088;2022-10-03T03:40:45;102086.11;;;8.51;100.00
31331;BME280;34067;39.548;-76.088;2022-10-03T03:43:38;102084.51;;;8.72;100.00
31331;BME280;34067;39.548;-76.088;2022-10-03T03:46:24;102082.70;;;9.26;100.00
31331;BME280;34067;39.548;-76.088;2022-10-03T03:49:07;102076.19;;;8.92;100.00
31331;BME280;34067;39.548;-76.088;2022-10-03T03:51:45;102072.02;;;8.27;100.00
31331;BME280;34067;39.548;-76.088;2022-10-03T03:54:37;102072.17;;;8.46;100.00
31331;BME280;34067;39.548;-76.088;2022-10-03T03:57:24;102074.70;;;8.37;100.00
31331;BME280;34067;39.548;-76.088;2022-10-03T04:00:08;102071.30;;;7.70;100.00
31331;BME280;34067;39.548;-76.088;2022-10-03T04:03:09;102067.10;;;9.18;100.00
31331;BME280;34067;39.548;-76.088;2022-10-03T04:06:01;102072.21;;;7.66;100.00
31331;BME280;34067;39.548;-76.088;2022-10-03T04:08:50;102064.95;;;7.59;100.00
31331;BME280;34067;39.548;-76.088;2022-10-03T04:11:27;102079.59;;;7.19;100.00
31331;BME280;34067;39.548;-76.088;2022-10-03T04:14:19;102070.98;;;7.35;100.00
31331;BME280;34067;39.548;-76.088;2022-10-03T04:17:04;102077.02;;;7.86;100.00
31331;BME280;34067;39.548;-76.088;2022-10-03T04:19:49;102072.84;;;8.01;100.00
31331;BME280;34067;39.548;-76.088;2022-10-03T04:22:41;102071.14;;;7.43;100.00
31331;BME280;34067;39.548;-76.088;2022-10-03T04:25:30;102070.63;;;6.93;100.00
31331;BME280;34067;39.548;-76.088;2022-10-03T04:28:15;102066.42;;;7.81;100.00
31331;BME280;34067;39.548;-76.088;2022-10-03T04:30:58;102069.73;;;6.98;100.00
31331;BME280;34067;39.548;-76.088;2022-10-03T04:33:40;102066.09;;;7.30;100.00
31331;BME280;34067;39.548;-76.088;2022-10-03T04:36:32;102077.66;;;7.02;100.00
31331;BME280;34067;39.548;-76.088;2022-10-03T04:39:15;102074.09;;;7.60;100.00
31331;BME280;34067;39.548;-76.088;2022-10-03T04:41:52;102074.59;;;7.03;100.00
31331;BME280;34067;39.548;-76.088;2022-10-03T04:44:38;102080.93;;;7.51;100.00
31331;BME280;34067;39.548;-76.088;2022-10-03T04:47:20;102072.23;;;7.33;100.00
31331;BME280;34067;39.548;-76.088;2022-10-03T04:49:57;102080.51;;;6.87;100.00
31331;BME280;34067;39.548;-76.088;2022-10-03T04:52:35;102074.54;;;7.19;100.00
31331;BME280;34067;39.548;-76.088;2022-10-03T04:55:18;102072.53;;;6.85;100.00
31331;BME280;34067;39.548;-76.088;2022-10-03T04:57:55;102070.73;;;6.87;100.00
31331;BME280;34067;39.548;-76.088;2022-10-03T05:03:16;102087.12;;;6.55;100.00
31331;BME280;34067;39.548;-76.088;2022-10-03T05:05:51;102088.94;;;6.90;100.00
31331;BME280;34067;39.548;-76.088;2022-10-03T05:08:30;102081.43;;;6.77;100.00
31331;BME280;34067;39.548;-76.088;2022-10-03T05:11:18;102075.88;;;7.14;100.00
31331;BME280;34067;39.548;-76.088;2022-10-03T05:13:59;102081.08;;;7.01;100.00
31331;BME280;34067;39.548;-76.088;2022-10-03T05:16:37;102082.17;;;6.47;100.00
31331;BME280;34067;39.548;-76.088;2022-10-03T05:19:27;102082.55;;;7.45;100.00
31331;BME280;34067;39.548;-76.088;2022-10-03T05:22:02;102082.65;;;7.80;100.00
31331;BME280;34067;39.548;-76.088;2022-10-03T05:24:37;102081.56;;;8.45;100.00
31331;BME280;34067;39.548;-76.088;2022-10-03T05:27:18;102079.57;;;7.11;100.00
31331;BME280;34067;39.548;-76.088;2022-10-03T05:29:58;102082.62;;;6.69;100.00
31331;BME280;34067;39.548;-76.088;2022-10-03T05:32:36;102077.80;;;7.44;100.00
31331;BME280;34067;39.548;-76.088;2022-10-03T05:35:25;102083.53;;;6.82;100.00
31331;BME280;34067;39.548;-76.088;2022-10-03T05:38:10;102082.08;;;8.37;100.00
31331;BME280;34067;39.548;-76.088;2022-10-03T05:40:58;102083.05;;;7.19;100.00
31331;BME280;34067;39.548;-76.088;2022-10-03T05:43:44;102082.27;;;6.51;100.00
31331;BME280;34067;39.548;-76.088;2022-10-03T05:46:21;102086.03;;;7.15;100.00
31331;BME280;34067;39.548;-76.088;2022-10-03T05:49:06;102093.14;;;7.68;100.00
31331;BME280;34067;39.548;-76.088;2022-10-03T05:52:03;102091.74;;;6.67;100.00
31331;BME280;34067;39.548;-76.088;2022-10-03T05:55:18;102089.94;;;6.25;100.00
31331;BME280;34067;39.548;-76.088;2022-10-03T05:58:16;102095.07;;;6.11;100.00
31331;BME280;34067;39.548;-76.088;2022-10-03T06:01:07;102100.48;;;6.71;100.00
31331;BME280;34067;39.548;-76.088;2022-10-03T06:03:55;102099.39;;;6.61;100.00
31331;BME280;34067;39.548;-76.088;2022-10-03T06:06:38;102106.32;;;6.47;100.00
31331;BME280;34067;39.548;-76.088;2022-10-03T06:09:58;102102.67;;;6.29;100.00
31331;BME280;34067;39.548;-76.088;2022-10-03T06:12:36;102100.57;;;7.77;100.00
31331;BME280;34067;39.548;-76.088;2022-10-03T06:15:26;102099.45;;;7.13;100.00
31331;BME280;34067;39.548;-76.088;2022-10-03T06:18:07;102103.65;;;6.71;100.00
31331;BME280;34067;39.548;-76.088;2022-10-03T06:23:11;102119.01;;;6.81;100.00
31331;BME280;34067;39.548;-76.088;2022-10-03T06:30:18;102118.24;;;7.18;100.00
31331;BME280;34067;39.548;-76.088;2022-10-03T06:33:14;102115.10;;;6.53;100.00
31331;BME280;34067;39.548;-76.088;2022-10-03T06:36:17;102113.08;;;5.55;100.00
31331;BME280;34067;39.548;-76.088;2022-10-03T06:40:10;102111.12;;;6.46;100.00
31331;BME280;34067;39.548;-76.088;2022-10-03T06:44:39;102114.13;;;7.39;100.00
31331;BME280;34067;39.548;-76.088;2022-10-03T06:47:24;102118.25;;;5.11;100.00
31331;BME280;34067;39.548;-76.088;2022-10-03T06:51:21;102104.88;;;6.23;100.00
31331;BME280;34067;39.548;-76.088;2022-10-03T06:54:14;102107.41;;;4.34;100.00
31331;BME280;34067;39.548;-76.088;2022-10-03T06:57:05;102109.30;;;5.31;100.00
31331;BME280;34067;39.548;-76.088;2022-10-03T06:59:48;102106.25;;;4.65;100.00
31331;BME280;34067;39.548;-76.088;2022-10-03T07:02:42;102101.26;;;5.21;100.00
31331;BME280;34067;39.548;-76.088;2022-10-03T07:07:43;102095.15;;;6.10;100.00
31331;BME280;34067;39.548;-76.088;2022-10-03T07:10:34;102092.52;;;4.74;100.00
31331;BME280;34067;39.548;-76.088;2022-10-03T07:13:56;102096.16;;;5.07;100.00
31331;BME280;34067;39.548;-76.088;2022-10-03T07:16:53;102080.70;;;5.12;100.00
31331;BME280;34067;39.548;-76.088;2022-10-03T07:19:42;102081.29;;;5.36;100.00
31331;BME280;34067;39.548;-76.088;2022-10-03T07:22:48;102080.33;;;5.36;100.00
31331;BME280;34067;39.548;-76.088;2022-10-03T07:25:33;102076.04;;;5.84;100.00
31331;BME280;34067;39.548;-76.088;2022-10-03T07:28:26;102090.03;;;6.18;100.00
31331;BME280;34067;39.548;-76.088;2022-10-03T07:31:07;102076.18;;;5.80;100.00
31331;BME280;34067;39.548;-76.088;2022-10-03T07:35:04;102079.36;;;4.95;100.00
31331;BME280;34067;39.548;-76.088;2022-10-03T07:37:54;102067.18;;;5.60;100.00
31331;BME280;34067;39.548;-76.088;2022-10-03T07:41:18;102072.68;;;5.07;100.00
31331;BME280;34067;39.548;-76.088;2022-10-03T07:44:05;102075.28;;;5.28;100.00
31331;BME280;34067;39.548;-76.088;2022-10-03T07:46:52;102063.67;;;5.16;100.00
31331;BME280;34067;39.548;-76.088;2022-10-03T07:49:44;102057.05;;;5.72;100.00
31331;BME280;34067;39.548;-76.088;2022-10-03T07:52:38;102055.66;;;5.55;100.00
31331;BME280;34067;39.548;-76.088;2022-10-03T07:55:27;102061.15;;;5.43;100.00
31331;BME280;34067;39.548;-76.088;2022-10-03T07:58:22;102052.71;;;6.38;100.00
31331;BME280;34067;39.548;-76.088;2022-10-03T08:01:07;102055.01;;;5.26;100.00
31331;BME280;34067;39.548;-76.088;2022-10-03T08:04:14;102052.74;;;4.95;100.00
31331;BME280;34067;39.548;-76.088;2022-10-03T08:07:01;102050.91;;;5.15;100.00
31331;BME280;34067;39.548;-76.088;2022-10-03T08:09:51;102071.95;;;5.38;100.00
31331;BME280;34067;39.548;-76.088;2022-10-03T08:13:22;102058.83;;;5.11;100.00
31331;BME280;34067;39.548;-76.088;2022-10-03T08:16:08;102050.41;;;5.37;100.00
31331;BME280;34067;39.548;-76.088;2022-10-03T08:19:09;102060.91;;;5.73;100.00
31331;BME280;34067;39.548;-76.088;2022-10-03T08:21:54;102057.72;;;4.40;100.00
31331;BME280;34067;39.548;-76.088;2022-10-03T08:24:55;102067.37;;;5.33;100.00
31331;BME280;34067;39.548;-76.088;2022-10-03T08:27:45;102067.35;;;5.69;100.00
31331;BME280;34067;39.548;-76.088;2022-10-03T08:30:21;102063.89;;;5.09;100.00
31331;BME280;34067;39.548;-76.088;2022-10-03T08:32:57;102062.45;;;5.63;100.00
31331;BME280;34067;39.548;-76.088;2022-10-03T08:36:12;102071.82;;;4.78;100.00
31331;BME280;34067;39.548;-76.088;2022-10-03T08:38:52;102078.88;;;5.85;100.00
31331;BME280;34067;39.548;-76.088;2022-10-03T08:43:07;102085.70;;;5.27;100.00
31331;BME280;34067;39.548;-76.088;2022-10-03T08:45:59;102089.14;;;5.34;100.00
31331;BME280;34067;39.548;-76.088;2022-10-03T08:48:55;102080.02;;;5.93;100.00
31331;BME280;34067;39.548;-76.088;2022-10-03T08:51:49;102085.27;;;5.03;100.00
31331;BME280;34067;39.548;-76.088;2022-10-03T08:54:39;102089.99;;;5.32;100.00
31331;BME280;34067;39.548;-76.088;2022-10-03T08:57:25;102096.65;;;5.31;100.00
31331;BME280;34067;39.548;-76.088;2022-10-03T09:00:10;102095.15;;;6.18;100.00
31331;BME280;34067;39.548;-76.088;2022-10-03T09:03:37;102103.77;;;5.85;100.00
31331;BME280;34067;39.548;-76.088;2022-10-03T09:07:38;102106.12;;;5.09;100.00
31331;BME280;34067;39.548;-76.088;2022-10-03T09:12:40;102107.39;;;6.19;100.00
31331;BME280;34067;39.548;-76.088;2022-10-03T09:18:29;102103.64;;;5.81;100.00
31331;BME280;34067;39.548;-76.088;2022-10-03T09:21:49;102107.62;;;5.02;100.00
31331;BME280;34067;39.548;-76.088;2022-10-03T09:25:00;102102.07;;;4.86;100.00
31331;BME280;34067;39.548;-76.088;2022-10-03T09:27:41;102105.68;;;5.19;100.00
31331;BME280;34067;39.548;-76.088;2022-10-03T09:30:25;102103.77;;;5.36;100.00
31331;BME280;34067;39.548;-76.088;2022-10-03T09:33:24;102110.64;;;5.16;100.00
31331;BME280;34067;39.548;-76.088;2022-10-03T09:36:07;102109.70;;;5.10;100.00
31331;BME280;34067;39.548;-76.088;2022-10-03T09:38:54;102109.46;;;5.00;100.00
31331;BME280;34067;39.548;-76.088;2022-10-03T09:41:46;102102.45;;;4.81;100.00
31331;BME280;34067;39.548;-76.088;2022-10-03T09:44:49;102105.24;;;5.75;100.00
31331;BME280;34067;39.548;-76.088;2022-10-03T09:47:41;102102.30;;;5.01;100.00
31331;BME280;34067;39.548;-76.088;2022-10-03T09:51:23;102099.25;;;5.10;100.00
31331;BME280;34067;39.548;-76.088;2022-10-03T09:55:47;102105.54;;;4.74;100.00
31331;BME280;34067;39.548;-76.088;2022-10-03T09:58:42;102120.85;;;5.08;100.00
31331;BME280;34067;39.548;-76.088;2022-10-03T10:01:24;102113.77;;;4.87;100.00
31331;BME280;34067;39.548;-76.088;2022-10-03T10:05:21;102110.94;;;4.51;100.00
31331;BME280;34067;39.548;-76.088;2022-10-03T10:08:11;102116.82;;;5.86;100.00
31331;BME280;34067;39.548;-76.088;2022-10-03T10:10:55;102116.74;;;5.53;100.00
31331;BME280;34067;39.548;-76.088;2022-10-03T10:14:19;102119.78;;;5.65;100.00
31331;BME280;34067;39.548;-76.088;2022-10-03T10:17:36;102122.67;;;4.95;100.00
31331;BME280;34067;39.548;-76.088;2022-10-03T10:20:28;102128.95;;;5.20;100.00
31331;BME280;34067;39.548;-76.088;2022-10-03T10:23:16;102131.73;;;4.85;100.00
31331;BME280;34067;39.548;-76.088;2022-10-03T10:28:31;102140.96;;;4.97;100.00
31331;BME280;34067;39.548;-76.088;2022-10-03T10:31:26;102141.34;;;4.74;100.00
31331;BME280;34067;39.548;-76.088;2022-10-03T10:34:41;102143.02;;;5.25;100.00
31331;BME280;34067;39.548;-76.088;2022-10-03T10:37:43;102148.87;;;5.13;100.00
31331;BME280;34067;39.548;-76.088;2022-10-03T10:43:10;102156.26;;;5.26;100.00
31331;BME280;34067;39.548;-76.088;2022-10-03T10:46:08;102157.92;;;5.10;100.00
31331;BME280;34067;39.548;-76.088;2022-10-03T10:49:16;102165.91;;;4.85;98.34
31331;BME280;34067;39.548;-76.088;2022-10-03T10:52:24;102159.19;;;5.14;99.65
31331;BME280;34067;39.548;-76.088;2022-10-03T10:55:35;102155.82;;;5.23;100.00
31331;BME280;34067;39.548;-76.088;2022-10-03T11:00:20;102151.33;;;6.69;100.00
31331;BME280;34067;39.548;-76.088;2022-10-03T11:05:33;102145.02;;;6.02;100.00
31331;BME280;34067;39.548;-76.088;2022-10-03T11:08:26;102148.92;;;5.18;99.11
31331;BME280;34067;39.548;-76.088;2022-10-03T11:11:33;102143.83;;;4.34;100.00
31331;BME280;34067;39.548;-76.088;2022-10-03T11:16:49;102147.97;;;5.80;100.00
31331;BME280;34067;39.548;-76.088;2022-10-03T11:19:51;102157.77;;;5.36;100.00
31331;BME280;34067;39.548;-76.088;2022-10-03T11:23:19;102147.21;;;5.13;100.00
31331;BME280;34067;39.548;-76.088;2022-10-03T11:26:38;102151.75;;;4.95;100.00
31331;BME280;34067;39.548;-76.088;2022-10-03T11:30:33;102152.17;;;5.23;100.00
31331;BME280;34067;39.548;-76.088;2022-10-03T11:34:14;102156.98;;;4.50;100.00
31331;BME280;34067;39.548;-76.088;2022-10-03T11:37:12;102158.26;;;5.17;100.00
31331;BME280;34067;39.548;-76.088;2022-10-03T11:39:51;102162.34;;;5.02;100.00
31331;BME280;34067;39.548;-76.088;2022-10-03T11:42:28;102160.56;;;5.38;97.15
31331;BME280;34067;39.548;-76.088;2022-10-03T11:45:11;102168.16;;;4.62;100.00
31331;BME280;34067;39.548;-76.088;2022-10-03T11:47:49;102163.49;;;6.39;100.00
31331;BME280;34067;39.548;-76.088;2022-10-03T11:50:31;102156.95;;;6.05;100.00
31331;BME280;34067;39.548;-76.088;2022-10-03T11:53:15;102164.45;;;4.61;96.21
31331;BME280;34067;39.548;-76.088;2022-10-03T11:55:48;102161.09;;;5.11;97.77
31331;BME280;34067;39.548;-76.088;2022-10-03T11:58:49;102174.79;;;5.53;100.00
31331;BME280;34067;39.548;-76.088;2022-10-03T12:01:28;102169.32;;;5.74;100.00
31331;BME280;34067;39.548;-76.088;2022-10-03T12:04:08;102163.07;;;5.23;100.00
31331;BME280;34067;39.548;-76.088;2022-10-03T12:06:50;102161.28;;;5.54;97.69
31331;BME280;34067;39.548;-76.088;2022-10-03T12:09:30;102180.51;;;6.29;95.72
31331;BME280;34067;39.548;-76.088;2022-10-03T12:12:08;102175.29;;;5.82;97.94
31331;BME280;34067;39.548;-76.088;2022-10-03T12:14:41;102167.44;;;5.56;100.00
31331;BME280;34067;39.548;-76.088;2022-10-03T12:17:12;102165.49;;;5.60;100.00
31331;BME280;34067;39.548;-76.088;2022-10-03T12:19:52;102170.30;;;5.24;92.30
31331;BME280;34067;39.548;-76.088;2022-10-03T12:22:35;102158.55;;;5.99;97.77
31331;BME280;34067;39.548;-76.088;2022-10-03T12:25:16;102180.54;;;6.31;94.10
31331;BME280;34067;39.548;-76.088;2022-10-03T12:27:54;102169.84;;;6.08;98.33
31331;BME280;34067;39.548;-76.088;2022-10-03T12:30:29;102162.54;;;6.20;92.90
31331;BME280;34067;39.548;-76.088;2022-10-03T12:33:15;102163.46;;;5.53;91.73
31331;BME280;34067;39.548;-76.088;2022-10-03T12:35:52;102171.20;;;6.05;93.49
31331;BME280;34067;39.548;-76.088;2022-10-03T12:38:35;102171.19;;;6.43;92.94
31331;BME280;34067;39.548;-76.088;2022-10-03T12:41:21;102170.73;;;5.26;87.88
31331;BME280;34067;39.548;-76.088;2022-10-03T12:44:08;102185.26;;;6.05;90.37
31331;BME280;34067;39.548;-76.088;2022-10-03T12:46:47;102175.08;;;5.76;91.11
31331;BME280;34067;39.548;-76.088;2022-10-03T12:49:23;102173.90;;;5.55;91.17
31331;BME280;34067;39.548;-76.088;2022-10-03T12:52:00;102166.99;;;6.11;85.02
31331;BME280;34067;39.548;-76.088;2022-10-03T12:54:43;102172.40;;;6.58;89.77
31331;BME280;34067;39.548;-76.088;2022-10-03T12:57:49;102189.96;;;6.01;95.54
31331;BME280;34067;39.548;-76.088;2022-10-03T13:00:22;102167.16;;;5.98;92.17
31331;BME280;34067;39.548;-76.088;2022-10-03T13:03:09;102171.10;;;6.03;89.47
31331;BME280;34067;39.548;-76.088;2022-10-03T13:05:57;102170.02;;;6.47;89.29
31331;BME280;34067;39.548;-76.088;2022-10-03T13:08:42;102167.18;;;5.71;86.30
31331;BME280;34067;39.548;-76.088;2022-10-03T13:11:24;102176.74;;;6.82;88.87
31331;BME280;34067;39.548;-76.088;2022-10-03T13:14:10;102186.62;;;6.01;87.71
31331;BME280;34067;39.548;-76.088;2022-10-03T13:16:44;102186.18;;;7.23;89.30
31331;BME280;34067;39.548;-76.088;2022-10-03T13:19:17;102193.54;;;6.03;85.38
31331;BME280;34067;39.548;-76.088;2022-10-03T13:21:55;102192.28;;;6.08;87.98
31331;BME280;34067;39.548;-76.088;2022-10-03T13:24:32;102195.26;;;6.85;92.45
31331;BME280;34067;39.548;-76.088;2022-10-03T13:27:24;102204.20;;;7.38;89.24
31331;BME280;34067;39.548;-76.088;2022-10-03T13:29:58;102205.25;;;6.45;87.05
31331;BME280;34067;39.548;-76.088;2022-10-03T13:32:32;102202.16;;;5.86;84.35
31331;BME280;34067;39.548;-76.088;2022-10-03T13:35:14;102208.27;;;6.50;91.29
31331;BME280;34067;39.548;-76.088;2022-10-03T13:37:58;102206.28;;;6.23;86.22
31331;BME280;34067;39.548;-76.088;2022-10-03T13:40:34;102205.17;;;7.05;86.85
31331;BME280;34067;39.548;-76.088;2022-10-03T13:43:10;102198.39;;;7.04;85.56
31331;BME280;34067;39.548;-76.088;2022-10-03T13:45:41;102203.96;;;6.67;84.04
31331;BME280;34067;39.548;-76.088;2022-10-03T13:48:13;102198.27;;;6.46;83.52
31331;BME280;34067;39.548;-76.088;2022-10-03T13:50:48;102207.99;;;5.79;84.45
31331;BME280;34067;39.548;-76.088;2022-10-03T13:53:32;102214.86;;;6.27;86.35
31331;BME280;34067;39.548;-76.088;2022-10-03T13:56:07;102209.81;;;5.20;84.57
31331;BME280;34067;39.548;-76.088;2022-10-03T13:58:44;102207.09;;;7.03;85.61
31331;BME280;34067;39.548;-76.088;2022-10-03T14:01:42;102201.35;;;6.08;85.28
31331;BME280;34067;39.548;-76.088;2022-10-03T14:04:29;102215.31;;;6.83;82.44
31331;BME280;34067;39.548;-76.088;2022-10-03T14:07:10;102209.80;;;6.39;90.43
31331;BME280;34067;39.548;-76.088;2022-10-03T14:09:57;102212.95;;;6.13;92.45
31331;BME280;34067;39.548;-76.088;2022-10-03T14:12:39;102229.35;;;6.31;85.72
31331;BME280;34067;39.548;-76.088;2022-10-03T14:15:23;102235.57;;;6.05;89.42
31331;BME280;34067;39.548;-76.088;2022-10-03T14:18:03;102211.24;;;6.10;99.08
31331;BME280;34067;39.548;-76.088;2022-10-03T14:20:41;102218.21;;;5.70;91.07
31331;BME280;34067;39.548;-76.088;2022-10-03T14:23:42;102219.20;;;6.06;95.96
31331;BME280;34067;39.548;-76.088;2022-10-03T14:26:18;102223.51;;;6.31;91.21
31331;BME280;34067;39.548;-76.088;2022-10-03T14:28:52;102225.79;;;6.19;89.83
31331;BME280;34067;39.548;-76.088;2022-10-03T14:31:31;102231.23;;;5.76;91.84
31331;BME280;34067;39.548;-76.088;2022-10-03T14:34:07;102220.87;;;7.02;87.79
31331;BME280;34067;39.548;-76.088;2022-10-03T14:36:46;102228.50;;;6.24;93.73
31331;BME280;34067;39.548;-76.088;2022-10-03T14:39:28;102233.30;;;5.97;96.12
31331;BME280;34067;39.548;-76.088;2022-10-03T14:42:24;102222.86;;;5.57;91.49
31331;BME280;34067;39.548;-76.088;2022-10-03T14:44:56;102238.09;;;7.24;93.21
31331;BME280;34067;39.548;-76.088;2022-10-03T14:47:32;102239.71;;;5.85;93.77
31331;BME280;34067;39.548;-76.088;2022-10-03T14:50:02;102250.51;;;6.18;91.73
31331;BME280;34067;39.548;-76.088;2022-10-03T14:52:36;102243.22;;;6.62;92.03
31331;BME280;34067;39.548;-76.088;2022-10-03T14:55:12;102257.76;;;6.25;96.92
31331;BME280;34067;39.548;-76.088;2022-10-03T14:57:45;102261.93;;;6.63;100.00
31331;BME280;34067;39.548;-76.088;2022-10-03T15:00:25;102250.61;;;6.54;98.12
31331;BME280;34067;39.548;-76.088;2022-10-03T15:02:53;102263.29;;;6.83;96.74
31331;BME280;34067;39.548;-76.088;2022-10-03T15:05:33;102256.81;;;6.94;99.41
31331;BME280;34067;39.548;-76.088;2022-10-03T15:08:02;102277.25;;;6.26;100.00
31331;BME280;34067;39.548;-76.088;2022-10-03T15:10:37;102249.30;;;6.20;100.00